createdAt,value
2022-10-17T00:00:56.293Z,101257.50
2022-10-17T00:03:23.089Z,101259.03
2022-10-17T00:05:49.949Z,101257.91
2022-10-17T00:08:18.992Z,101258.53
2022-10-17T00:10:54.791Z,101263.75
2022-10-17T00:13:21.598Z,101254.59
2022-10-17T00:15:48.420Z,101260.78
2022-10-17T00:18:15.189Z,101262.53
2022-10-17T00:20:42.117Z,101259.81
2022-10-17T00:23:09.128Z,101252.41
2022-10-17T00:25:37.000Z,101244.38
2022-10-17T00:28:04.106Z,101240.81
2022-10-17T00:30:32.792Z,101240.69
2022-10-17T00:32:59.571Z,101243.50
2022-10-17T00:35:26.412Z,101239.06
2022-10-17T00:37:53.110Z,101235.47
2022-10-17T00:40:19.964Z,101240.06
2022-10-17T00:42:47.902Z,101236.34
2022-10-17T00:45:19.628Z,101230.91
2022-10-17T00:48:04.277Z,101229.09
2022-10-17T00:50:31.947Z,101224.63
2022-10-17T00:53:02.799Z,101222.75
2022-10-17T00:55:34.587Z,101234.38
2022-10-17T00:58:05.220Z,101230.91
2022-10-17T01:00:32.092Z,101235.88
2022-10-17T01:02:59.059Z,101238.44
2022-10-17T01:05:26.383Z,101235.63
2022-10-17T01:07:54.872Z,101236.38
2022-10-17T01:10:27.528Z,101233.41
2022-10-17T01:13:42.537Z,101224.28
2022-10-17T01:16:39.499Z,101222.31
2022-10-17T01:19:49.341Z,101207.63
2022-10-17T01:22:36.046Z,101211.19
2022-10-17T01:25:33.700Z,101222.06
2022-10-17T01:28:36.944Z,101213.06
2022-10-17T01:31:15.391Z,101225.53
2022-10-17T01:33:56.205Z,101230.97
2022-10-17T01:36:39.469Z,101222.56
2022-10-17T01:39:11.830Z,101225.28
2022-10-17T01:41:51.536Z,101210.50
2022-10-17T01:44:25.093Z,101210.50
2022-10-17T01:47:02.523Z,101208.75
2022-10-17T01:49:34.491Z,101208.50
2022-10-17T01:52:10.842Z,101199.88
2022-10-17T01:54:48.159Z,101200.84
2022-10-17T01:57:35.333Z,101204.06
2022-10-17T02:00:09.588Z,101207.28
2022-10-17T02:02:43.652Z,101202.97
2022-10-17T02:05:11.115Z,101202.84
2022-10-17T02:07:37.907Z,101211.00
2022-10-17T02:10:19.712Z,101206.22
2022-10-17T02:13:17.221Z,101213.00
2022-10-17T02:16:17.870Z,101204.34
2022-10-17T02:19:20.101Z,101204.34
2022-10-17T02:22:10.937Z,101205.31
2022-10-17T02:25:02.236Z,101202.59
2022-10-17T02:27:53.756Z,101210.75
2022-10-17T02:30:41.911Z,101194.44
2022-10-17T02:33:31.833Z,101203.59
2022-10-17T02:36:08.859Z,101207.28
2022-10-17T02:38:36.032Z,101197.31
2022-10-17T02:41:09.723Z,101207.19
2022-10-17T02:43:38.948Z,101196.19
2022-10-17T02:46:08.154Z,101201.63
2022-10-17T02:48:44.153Z,101197.03
2022-10-17T02:51:36.839Z,101200.78
2022-10-17T02:54:32.804Z,101196.31
2022-10-17T02:57:06.376Z,101206.09
2022-10-17T02:59:35.931Z,101200.78
2022-10-17T03:02:06.146Z,101191.88
2022-10-17T03:04:34.635Z,101198.16
2022-10-17T03:07:01.432Z,101197.16
2022-10-17T03:09:28.203Z,101203.38
2022-10-17T03:11:55.306Z,101203.38
2022-10-17T03:14:22.059Z,101198.78
2022-10-17T03:16:48.849Z,101193.47
2022-10-17T03:19:17.648Z,101199.03
2022-10-17T03:21:44.530Z,101200.78
2022-10-17T03:24:12.313Z,101194.31
2022-10-17T03:26:39.337Z,101195.94
2022-10-17T03:29:07.414Z,101203.09
2022-10-17T03:31:36.586Z,101202.84
2022-10-17T03:34:05.357Z,101201.38
2022-10-17T03:36:32.373Z,101205.69
2022-10-17T03:38:59.260Z,101203.97
2022-10-17T03:41:27.593Z,101199.41
2022-10-17T03:43:54.610Z,101200.00
2022-10-17T03:46:23.597Z,101201.13
2022-10-17T03:48:50.921Z,101199.03
2022-10-17T03:51:17.906Z,101199.13
2022-10-17T03:53:49.867Z,101196.28
2022-10-17T03:56:21.644Z,101194.16
2022-10-17T03:58:57.778Z,101192.69
2022-10-17T04:01:25.180Z,101190.09
2022-10-17T04:03:54.909Z,101183.81
2022-10-17T04:06:22.794Z,101197.41
2022-10-17T04:08:50.310Z,101197.88
2022-10-17T04:11:37.355Z,101197.50
2022-10-17T04:14:05.122Z,101210.00
2022-10-17T04:16:32.141Z,101205.28
2022-10-17T04:19:14.186Z,101207.75
2022-10-17T04:21:44.858Z,101206.63
2022-10-17T04:24:12.357Z,101207.50
2022-10-17T04:26:51.015Z,101206.25
2022-10-17T04:29:19.068Z,101220.19
2022-10-17T04:31:49.890Z,101224.25
2022-10-17T04:34:25.227Z,101229.22
2022-10-17T04:36:53.050Z,101233.88
2022-10-17T04:39:20.140Z,101227.91
2022-10-17T04:41:47.886Z,101227.66
2022-10-17T04:44:14.870Z,101234.44
2022-10-17T04:46:47.665Z,101229.81
2022-10-17T04:49:14.576Z,101240.22
2022-10-17T04:51:45.942Z,101240.69
2022-10-17T04:54:23.470Z,101253.78
2022-10-17T04:56:59.108Z,101241.38
2022-10-17T04:59:26.316Z,101251.00
2022-10-17T05:02:04.146Z,101258.19
2022-10-17T05:04:32.209Z,101251.88
2022-10-17T05:06:59.260Z,101254.00
2022-10-17T05:09:40.376Z,101260.63
2022-10-17T05:12:09.571Z,101265.34
2022-10-17T05:14:39.792Z,101260.16
2022-10-17T05:17:06.566Z,101268.50
2022-10-17T05:19:33.398Z,101265.00
2022-10-17T05:22:00.396Z,101263.44
2022-10-17T05:24:27.220Z,101259.25
2022-10-17T05:26:54.027Z,101264.09
2022-10-17T05:29:20.977Z,101271.41
2022-10-17T05:31:53.102Z,101278.69
2022-10-17T05:34:20.383Z,101267.78
2022-10-17T05:36:47.302Z,101285.03
2022-10-17T05:39:19.659Z,101277.81
2022-10-17T05:41:48.043Z,101284.41
2022-10-17T05:44:15.015Z,101281.81
2022-10-17T05:46:45.368Z,101288.25
2022-10-17T05:49:19.667Z,101284.41
2022-10-17T05:51:59.031Z,101275.63
2022-10-17T05:54:26.890Z,101278.81
2022-10-17T05:56:55.449Z,101287.50
2022-10-17T05:59:26.964Z,101289.25
2022-10-17T06:01:58.209Z,101292.72
2022-10-17T06:04:27.817Z,101292.72
2022-10-17T06:06:56.298Z,101296.41
2022-10-17T06:09:24.388Z,101294.69
2022-10-17T06:11:53.815Z,101290.72
2022-10-17T06:14:20.913Z,101293.56
2022-10-17T06:16:51.454Z,101298.03
2022-10-17T06:19:18.377Z,101288.97
2022-10-17T06:21:46.501Z,101299.75
2022-10-17T06:24:15.539Z,101303.06
2022-10-17T06:26:43.222Z,101311.13
2022-10-17T06:29:13.411Z,101308.41
2022-10-17T06:31:45.527Z,101302.09
2022-10-17T06:34:12.321Z,101307.88
2022-10-17T06:36:40.450Z,101310.22
2022-10-17T06:39:08.530Z,101311.66
2022-10-17T06:41:47.318Z,101303.50
2022-10-17T06:44:18.285Z,101310.69
2022-10-17T06:47:03.886Z,101301.50
2022-10-17T06:49:34.203Z,101309.56
2022-10-17T06:52:24.844Z,101312.16
2022-10-17T06:55:11.511Z,101319.06
2022-10-17T06:57:46.400Z,101324.00
2022-10-17T07:00:31.703Z,101327.47
2022-10-17T07:02:58.596Z,101329.53
2022-10-17T07:05:25.380Z,101349.41
2022-10-17T07:07:52.333Z,101328.91
2022-10-17T07:10:19.213Z,101326.78
2022-10-17T07:12:46.224Z,101325.53
2022-10-17T07:15:13.452Z,101327.00
2022-10-17T07:17:40.245Z,101320.28
2022-10-17T07:20:07.975Z,101326.31
2022-10-17T07:22:37.086Z,101332.13
2022-10-17T07:25:05.150Z,101336.88
2022-10-17T07:27:42.803Z,101340.00
2022-10-17T07:30:10.838Z,101340.00
2022-10-17T07:32:54.610Z,101349.13
2022-10-17T07:35:22.154Z,101354.06
2022-10-17T07:37:49.058Z,101361.25
2022-10-17T07:40:18.969Z,101364.72
2022-10-17T07:42:45.795Z,101368.16
2022-10-17T07:45:13.545Z,101378.94
2022-10-17T07:47:42.035Z,101404.09
2022-10-17T07:50:10.219Z,101420.94
2022-10-17T07:52:37.398Z,101438.78
2022-10-17T07:55:04.751Z,101458.13
2022-10-17T07:57:31.563Z,101474.50
2022-10-17T07:59:58.339Z,101479.97
2022-10-17T08:02:28.095Z,101483.38
2022-10-17T08:04:55.136Z,101484.75
2022-10-17T08:07:26.838Z,101481.91
2022-10-17T08:09:55.276Z,101457.47
2022-10-17T08:12:22.250Z,101484.88
2022-10-17T08:14:49.564Z,101483.56
2022-10-17T08:17:16.585Z,101498.44
2022-10-17T08:19:43.361Z,101484.31
2022-10-17T08:22:10.213Z,101472.78
2022-10-17T08:24:36.973Z,101477.66
2022-10-17T08:27:08.555Z,101490.56
2022-10-17T08:29:35.306Z,101525.28
2022-10-17T08:32:03.715Z,101543.34
2022-10-17T08:34:31.275Z,101544.25
2022-10-17T08:36:58.021Z,101562.47
2022-10-17T08:39:24.794Z,101559.53
2022-10-17T08:42:08.377Z,101548.28
2022-10-17T08:44:59.818Z,101545.66
2022-10-17T08:47:36.228Z,101544.19
2022-10-17T08:50:11.726Z,101544.19
2022-10-17T08:53:10.880Z,101542.72
2022-10-17T08:55:47.209Z,101528.59
2022-10-17T08:58:28.172Z,101539.75
2022-10-17T09:01:26.560Z,101543.47
2022-10-17T09:04:10.992Z,101544.72
2022-10-17T09:06:49.282Z,101556.63
2022-10-17T09:09:30.267Z,101558.47
2022-10-17T09:12:05.690Z,101536.81
2022-10-17T09:14:53.282Z,101535.06
2022-10-17T09:17:45.032Z,101558.84
2022-10-17T09:20:24.465Z,101558.72
2022-10-17T09:23:03.962Z,101564.06
2022-10-17T09:25:44.110Z,101576.94
2022-10-17T09:28:38.316Z,101598.47
2022-10-17T09:31:22.901Z,101596.63
2022-10-17T09:33:54.836Z,101609.63
2022-10-17T09:36:26.063Z,101622.25
2022-10-17T09:38:57.006Z,101607.66
2022-10-17T09:41:49.999Z,101554.13
2022-10-17T09:44:22.767Z,101518.09
2022-10-17T09:47:27.445Z,101497.53
2022-10-17T09:49:54.889Z,101515.50
2022-10-17T09:52:35.189Z,101529.59
2022-10-17T09:55:07.157Z,101552.63
2022-10-17T09:58:00.470Z,101566.75
2022-10-17T10:00:41.253Z,101592.25
2022-10-17T10:03:17.110Z,101602.31
2022-10-17T10:06:07.015Z,101573.47
2022-10-17T10:08:50.342Z,101582.50
2022-10-17T10:11:20.041Z,101575.91
2022-10-17T10:13:49.604Z,101567.00
2022-10-17T10:16:32.204Z,101550.66
2022-10-17T10:18:59.168Z,101561.31
2022-10-17T10:21:27.749Z,101567.25
2022-10-17T10:24:09.724Z,101575.78
2022-10-17T10:26:48.812Z,101593.75
2022-10-17T10:29:56.689Z,101598.19
2022-10-17T10:32:26.863Z,101596.47
2022-10-17T10:35:00.377Z,101600.19
2022-10-17T10:37:39.875Z,101605.41
2022-10-17T10:40:20.104Z,101615.06
2022-10-17T10:42:51.331Z,101630.31
2022-10-17T10:45:48.453Z,101626.44
2022-10-17T10:48:25.818Z,101621.00
2022-10-17T10:51:07.969Z,101632.03
2022-10-17T10:53:46.115Z,101642.81
2022-10-17T10:56:20.945Z,101651.84
2022-10-17T10:59:06.665Z,101653.72
2022-10-17T11:01:53.222Z,101663.75
2022-10-17T11:04:26.771Z,101661.16
2022-10-17T11:07:04.648Z,101664.88
2022-10-17T11:09:54.561Z,101669.56
2022-10-17T11:12:31.502Z,101681.63
2022-10-17T11:15:31.296Z,101682.59
2022-10-17T11:18:05.160Z,101680.88
2022-10-17T11:20:58.939Z,101681.50
2022-10-17T11:23:44.739Z,101684.97
2022-10-17T11:26:27.002Z,101687.41
2022-10-17T11:28:56.447Z,101706.25
2022-10-17T11:31:31.030Z,101711.25
2022-10-17T11:34:06.982Z,101711.25
2022-10-17T11:36:39.842Z,101719.44
2022-10-17T11:39:56.511Z,101713.06
2022-10-17T11:42:44.111Z,101723.88
2022-10-17T11:45:21.662Z,101719.16
2022-10-17T11:47:57.585Z,101727.34
2022-10-17T11:53:31.345Z,101733.28
2022-10-17T11:56:01.582Z,101728.56
2022-10-17T11:58:55.441Z,101728.34
2022-10-17T12:01:52.560Z,101731.91
2022-10-17T12:04:52.989Z,101733.50
2022-10-17T12:10:39.741Z,101745.31
2022-10-17T12:13:51.639Z,101738.97
2022-10-17T12:16:21.308Z,101749.03
2022-10-17T12:19:11.164Z,101740.72
2022-10-17T12:22:00.336Z,101735.03
2022-10-17T12:24:44.006Z,101724.13
2022-10-17T12:27:50.175Z,101734.75
2022-10-17T12:30:24.063Z,101732.81
2022-10-17T12:33:22.381Z,101734.31
2022-10-17T12:35:51.775Z,101738.75
2022-10-17T12:38:18.447Z,101739.47
2022-10-17T12:40:49.052Z,101741.22
2022-10-17T12:43:15.917Z,101733.78
2022-10-17T12:45:54.093Z,101731.78
2022-10-17T12:48:39.462Z,101741.59
2022-10-17T12:51:40.486Z,101745.94
2022-10-17T12:54:16.645Z,101740.22
2022-10-17T12:56:49.511Z,101745.41
2022-10-17T12:59:24.166Z,101750.63
2022-10-17T13:01:58.999Z,101751.25
2022-10-17T13:04:29.125Z,101766.47
2022-10-17T13:07:00.668Z,101770.97
2022-10-17T13:09:31.690Z,101777.16
2022-10-17T13:12:04.870Z,101779.16
2022-10-17T13:14:33.989Z,101783.47
2022-10-17T13:17:04.098Z,101786.09
2022-10-17T13:19:42.032Z,101790.56
2022-10-17T13:22:15.459Z,101792.56
2022-10-17T13:24:42.361Z,101796.28
2022-10-17T13:27:32.044Z,101788.31
2022-10-17T13:30:02.998Z,101799.50
2022-10-17T13:32:39.645Z,101801.50
2022-10-17T13:35:17.095Z,101805.22
2022-10-17T13:37:51.602Z,101803.50
2022-10-17T13:40:49.559Z,101811.69
2022-10-17T13:43:24.198Z,101811.53
2022-10-17T13:45:54.135Z,101809.81
2022-10-17T13:48:30.556Z,101814.53
2022-10-17T13:51:07.878Z,101815.50
2022-10-17T13:53:41.698Z,101825.56
2022-10-17T13:56:28.451Z,101825.56
2022-10-17T13:59:01.433Z,101827.28
2022-10-17T14:01:30.197Z,101835.34
2022-10-17T14:04:08.472Z,101839.97
2022-10-17T14:06:46.282Z,101848.88
2022-10-17T14:09:28.791Z,101850.88
2022-10-17T14:12:12.840Z,101851.13
2022-10-17T14:15:09.323Z,101846.78
2022-10-17T14:17:38.471Z,101859.69
2022-10-17T14:20:47.855Z,101856.84
2022-10-17T14:23:21.488Z,101863.28
2022-10-17T14:25:46.795Z,101863.41
2022-10-17T14:28:14.784Z,101873.47
2022-10-17T14:30:57.180Z,101868.63
2022-10-17T14:33:31.898Z,101874.47
2022-10-17T14:36:02.819Z,101873.34
2022-10-17T14:38:30.469Z,101877.66
2022-10-17T14:43:57.919Z,101885.50
2022-10-17T14:46:25.812Z,101893.56
2022-10-17T14:49:04.884Z,101890.09
2022-10-17T14:51:40.226Z,101890.94
2022-10-17T14:54:24.271Z,101886.34
2022-10-17T14:56:53.715Z,101891.56
2022-10-17T14:59:51.428Z,101883.38
2022-10-17T15:02:12.126Z,101886.13
2022-10-17T15:04:38.890Z,101876.91
2022-10-17T15:07:05.854Z,101882.38
2022-10-17T15:09:33.075Z,101873.19
2022-10-17T15:12:02.712Z,101877.81
2022-10-17T15:14:29.506Z,101880.66
2022-10-17T15:16:56.251Z,101886.13
2022-10-17T15:19:23.041Z,101878.03
2022-10-17T15:21:49.785Z,101889.81
2022-10-17T15:24:16.512Z,101885.38
2022-10-17T15:26:44.983Z,101888.09
2022-10-17T15:29:16.105Z,101897.03
2022-10-17T15:31:43.079Z,101916.03
2022-10-17T15:34:09.916Z,101912.28
2022-10-17T15:36:42.678Z,101916.66
2022-10-17T15:39:10.058Z,101921.09
2022-10-17T15:41:36.835Z,101921.22
2022-10-17T15:44:03.687Z,101925.81
2022-10-17T15:46:35.359Z,101936.84
2022-10-17T15:49:07.461Z,101931.50
2022-10-17T15:51:34.491Z,101940.94
2022-10-17T15:54:01.820Z,101947.53
2022-10-17T15:56:36.306Z,101947.88
2022-10-17T15:59:14.135Z,101948.28
2022-10-17T16:01:42.240Z,101948.50
2022-10-17T16:04:15.078Z,101947.88
2022-10-17T16:06:42.965Z,101952.72
2022-10-17T16:09:10.774Z,101960.16
2022-10-17T16:11:44.383Z,101960.28
2022-10-17T16:14:16.168Z,101958.91
2022-10-17T16:16:43.360Z,101956.28
2022-10-17T16:19:10.257Z,101962.00
2022-10-17T16:21:40.665Z,101967.66
2022-10-17T16:24:12.113Z,101967.88
2022-10-17T16:26:39.917Z,101969.88
2022-10-17T16:29:07.280Z,101964.63
2022-10-17T16:31:37.842Z,101960.41
2022-10-17T16:34:06.491Z,101964.16
2022-10-17T16:36:33.291Z,101976.16
2022-10-17T16:39:00.398Z,101975.41
2022-10-17T16:41:31.136Z,101981.09
2022-10-17T16:44:03.453Z,101983.97
2022-10-17T16:46:32.337Z,101985.78
2022-10-17T16:48:59.648Z,101986.69
2022-10-17T16:51:26.616Z,101984.19
2022-10-17T16:53:56.425Z,101982.44
2022-10-17T16:56:25.068Z,101991.63
2022-10-17T16:58:53.183Z,101994.47
2022-10-17T17:01:23.817Z,101999.06
2022-10-17T17:03:52.551Z,102006.44
2022-10-17T17:06:27.433Z,101998.41
2022-10-17T17:08:56.011Z,101995.91
2022-10-17T17:11:26.081Z,102003.44
2022-10-17T17:13:56.900Z,101999.97
2022-10-17T17:16:27.157Z,102000.19
2022-10-17T17:18:59.830Z,102007.28
2022-10-17T17:21:27.878Z,102006.41
2022-10-17T17:23:59.006Z,102014.56
2022-10-17T17:26:29.833Z,102010.34
2022-10-17T17:28:59.942Z,102015.06
2022-10-17T17:31:30.588Z,102019.88
2022-10-17T17:33:58.212Z,102013.78
2022-10-17T17:36:32.777Z,102023.91
2022-10-17T17:39:04.033Z,102030.34
2022-10-17T17:41:31.506Z,102032.09
2022-10-17T17:43:58.462Z,102042.13
2022-10-17T17:46:25.983Z,102043.22
2022-10-17T17:48:55.161Z,102041.50
2022-10-17T17:51:28.378Z,102047.16
2022-10-17T17:53:56.858Z,102043.69
2022-10-17T17:56:28.046Z,102048.91
2022-10-17T17:59:01.616Z,102047.16
2022-10-17T18:01:32.364Z,102050.84
2022-10-17T18:03:59.565Z,102052.81
2022-10-17T18:06:27.800Z,102057.41
2022-10-17T18:08:58.482Z,102059.28
2022-10-17T18:11:27.403Z,102055.81
2022-10-17T18:13:56.597Z,102057.75
2022-10-17T18:16:25.000Z,102057.00
2022-10-17T18:18:51.756Z,102058.97
2022-10-17T18:21:19.176Z,102067.25
2022-10-17T18:23:49.330Z,102059.22
2022-10-17T18:26:16.508Z,102061.16
2022-10-17T18:28:44.365Z,102075.78
2022-10-17T18:31:21.936Z,102065.09
2022-10-17T18:33:52.913Z,102061.59
2022-10-17T18:36:20.964Z,102066.28
2022-10-17T18:38:48.772Z,102073.72
2022-10-17T18:41:19.139Z,102071.00
2022-10-17T18:43:48.172Z,102074.69
2022-10-17T18:46:29.285Z,102071.19
2022-10-17T18:48:57.336Z,102078.63
2022-10-17T18:51:26.330Z,102076.00
2022-10-17T18:53:56.553Z,102085.03
2022-10-17T18:56:24.684Z,102086.03
2022-10-17T18:58:51.929Z,102085.16
2022-10-17T19:01:22.678Z,102083.41
2022-10-17T19:03:54.514Z,102095.16
2022-10-17T19:06:25.393Z,102092.44
2022-10-17T19:08:52.391Z,102094.31
2022-10-17T19:11:24.077Z,102093.44
2022-10-17T19:13:52.605Z,102092.44
2022-10-17T19:16:26.780Z,102097.13
2022-10-17T19:18:57.842Z,102092.59
2022-10-17T19:21:25.643Z,102091.59
2022-10-17T19:24:02.082Z,102092.44
2022-10-17T19:26:35.011Z,102085.28
2022-10-17T19:29:02.319Z,102078.81
2022-10-17T19:31:31.741Z,102078.63
2022-10-17T19:34:00.422Z,102087.53
2022-10-17T19:36:33.371Z,102098.44
2022-10-17T19:39:04.604Z,102093.09
2022-10-17T19:41:31.918Z,102094.97
2022-10-17T19:44:00.545Z,102104.09
2022-10-17T19:46:29.743Z,102104.88
2022-10-17T19:48:57.312Z,102105.66
2022-10-17T19:51:25.383Z,102100.19
2022-10-17T19:53:54.733Z,102103.88
2022-10-17T19:56:24.029Z,102098.44
2022-10-17T19:58:51.861Z,102098.44
2022-10-17T20:01:26.016Z,102101.94
2022-10-17T20:03:53.738Z,102105.66
2022-10-17T20:06:21.897Z,102107.63
2022-10-17T20:08:49.428Z,102112.06
2022-10-17T20:11:23.446Z,102115.66
2022-10-17T20:13:51.540Z,102106.63
2022-10-17T20:16:25.421Z,102107.38
2022-10-17T20:18:56.509Z,102111.09
2022-10-17T20:21:32.940Z,102116.53
2022-10-17T20:24:00.792Z,102118.50
2022-10-17T20:26:38.603Z,102121.34
2022-10-17T20:29:12.713Z,102120.44
2022-10-17T20:31:42.990Z,102123.16
2022-10-17T20:34:14.203Z,102115.25
2022-10-17T20:36:41.151Z,102122.66
2022-10-17T20:39:10.537Z,102128.09
2022-10-17T20:41:37.290Z,102126.34
2022-10-17T20:44:04.623Z,102128.09
2022-10-17T20:46:44.782Z,102128.09
2022-10-17T20:49:21.383Z,102139.00
2022-10-17T20:51:48.125Z,102142.69
2022-10-17T20:54:14.946Z,102146.38
2022-10-17T20:56:41.810Z,102147.34
2022-10-17T20:59:14.369Z,102152.72
2022-10-17T21:01:41.324Z,102145.47
2022-10-17T21:04:40.297Z,102155.50
2022-10-17T21:06:55.471Z,102153.75
2022-10-17T21:09:22.621Z,102159.19
2022-10-17T21:11:55.516Z,102156.47
2022-10-17T21:14:24.880Z,102163.88
2022-10-17T21:16:52.388Z,102166.84
2022-10-17T21:19:19.806Z,102171.63
2022-10-17T21:21:46.813Z,102165.53
2022-10-17T21:24:20.731Z,102158.31
2022-10-17T21:26:55.238Z,102157.56
2022-10-17T21:29:23.821Z,102163.00
2022-10-17T21:31:51.404Z,102168.56
2022-10-17T21:34:23.882Z,102177.72
2022-10-17T21:36:51.958Z,102170.53
2022-10-17T21:39:19.221Z,102169.66
2022-10-17T21:41:45.977Z,102162.44
2022-10-17T21:44:19.088Z,102161.59
2022-10-17T21:46:47.097Z,102174.34
2022-10-17T21:49:18.599Z,102173.56
2022-10-17T21:51:52.811Z,102170.97
2022-10-17T21:54:22.980Z,102175.50
2022-10-17T21:56:51.000Z,102172.25
2022-10-17T21:59:17.937Z,102186.50
2022-10-17T22:01:45.980Z,102189.31
2022-10-17T22:04:17.328Z,102187.47
2022-10-17T22:06:46.867Z,102182.78
2022-10-17T22:09:22.066Z,102192.47
2022-10-17T22:11:52.975Z,102193.38
2022-10-17T22:14:22.973Z,102192.47
2022-10-17T22:16:50.993Z,102208.03
2022-10-17T22:19:27.211Z,102209.03
2022-10-17T22:21:54.861Z,102206.31
2022-10-17T22:24:23.313Z,102210.09
2022-10-17T22:26:50.408Z,102212.91
2022-10-17T22:29:17.654Z,102211.19
2022-10-17T22:31:44.558Z,102214.88
2022-10-17T22:34:14.645Z,102208.66
2022-10-17T22:36:42.361Z,102215.97
2022-10-17T22:39:10.260Z,102213.34
2022-10-17T22:41:37.057Z,102220.75
2022-10-17T22:44:04.130Z,102217.25
2022-10-17T22:46:30.977Z,102211.81
2022-10-17T22:48:57.737Z,102219.00
2022-10-17T22:53:56.557Z,102213.53
2022-10-17T22:56:23.627Z,102222.69
2022-10-17T22:58:51.185Z,102220.94
2022-10-17T23:01:23.642Z,102228.34
2022-10-17T23:03:52.532Z,102223.09
2022-10-17T23:06:20.572Z,102219.84
2022-10-17T23:08:47.728Z,102228.97
2022-10-17T23:11:14.739Z,102221.78
2022-10-17T23:13:41.783Z,102211.75
2022-10-17T23:16:09.400Z,102219.84
2022-10-17T23:18:38.207Z,102224.19
2022-10-17T23:21:05.684Z,102227.78
2022-10-17T23:23:32.590Z,102223.31
2022-10-17T23:26:09.617Z,102221.56
2022-10-17T23:28:37.019Z,102222.56
2022-10-17T23:31:14.907Z,102221.56
2022-10-17T23:33:44.816Z,102225.03
2022-10-17T23:36:15.092Z,102224.00
2022-10-17T23:38:44.400Z,102221.16
2022-10-17T23:41:11.631Z,102225.72
2022-10-17T23:43:38.517Z,102230.19
2022-10-17T23:46:06.636Z,102222.13
2022-10-17T23:48:33.748Z,102221.38
2022-10-17T23:51:00.923Z,102210.47
2022-10-17T23:53:27.734Z,102214.16
2022-10-17T23:55:54.513Z,102211.56
2022-10-17T23:58:21.421Z,102208.94
